createdAt,value
2017-08-11T03:45:38.913Z,3.55
2017-08-11T03:48:06.572Z,4.65
2017-08-11T03:50:35.945Z,3.62
2017-08-11T03:53:03.650Z,2.80
2017-08-11T03:55:31.586Z,2.90
2017-08-11T03:57:59.856Z,2.58
2017-08-11T04:00:28.149Z,2.35
2017-08-11T04:02:55.665Z,3.03
2017-08-11T04:05:24.153Z,3.35
2017-08-11T04:07:51.942Z,3.70
2017-08-11T04:10:19.442Z,3.95
2017-08-11T04:12:46.977Z,3.53
2017-08-11T04:15:14.658Z,4.60
2017-08-11T04:17:42.177Z,4.90
2017-08-11T04:20:10.485Z,4.70
2017-08-11T04:22:38.726Z,4.28
2017-08-11T04:25:06.241Z,4.15
2017-08-11T04:27:33.773Z,5.03
2017-08-11T04:30:01.517Z,5.10
2017-08-11T04:32:29.139Z,4.70
2017-08-11T04:34:56.787Z,4.07
2017-08-11T04:37:24.292Z,4.25
2017-08-11T04:39:51.816Z,3.80
2017-08-11T04:42:19.496Z,3.70
2017-08-11T04:44:47.017Z,3.70
2017-08-11T04:47:14.526Z,3.58
2017-08-11T04:49:42.028Z,3.45
2017-08-11T04:52:09.545Z,3.58
2017-08-11T04:54:37.051Z,3.20
2017-08-11T04:57:04.573Z,5.50
2017-08-11T04:59:32.073Z,3.80
2017-08-11T05:02:00.144Z,3.65
2017-08-11T05:04:28.404Z,3.72
2017-08-11T05:06:56.038Z,3.70
2017-08-11T05:09:23.548Z,4.07
2017-08-11T05:11:51.066Z,3.50
2017-08-11T05:14:18.583Z,3.80
2017-08-11T05:16:46.077Z,3.78
2017-08-11T05:19:13.593Z,4.30
2017-08-11T05:21:41.097Z,4.10
2017-08-11T05:24:08.625Z,3.53
2017-08-11T05:26:36.176Z,4.03
2017-08-11T05:29:03.710Z,3.78
2017-08-11T05:31:31.221Z,5.20
2017-08-11T05:33:58.745Z,5.10
2017-08-11T05:36:26.245Z,4.03
2017-08-11T05:38:54.517Z,3.30
2017-08-11T05:41:22.174Z,3.25
2017-08-11T05:43:49.681Z,4.20
2017-08-11T05:46:17.218Z,3.28
2017-08-11T05:48:44.871Z,3.97
2017-08-11T05:51:12.396Z,3.70
2017-08-11T05:53:39.897Z,2.55
2017-08-11T05:56:08.337Z,2.53
2017-08-11T05:58:35.832Z,2.40
2017-08-11T06:01:04.547Z,2.70
2017-08-11T06:03:32.068Z,2.50
2017-08-11T06:05:59.694Z,2.90
2017-08-11T06:08:27.213Z,3.00
2017-08-11T06:10:54.849Z,2.60
2017-08-11T06:13:22.369Z,2.83
2017-08-11T06:15:49.872Z,1.87
2017-08-11T06:18:17.502Z,2.15
2017-08-11T06:20:45.769Z,2.45
2017-08-11T06:23:13.302Z,2.60
2017-08-11T06:25:40.800Z,1.75
2017-08-11T06:28:08.297Z,1.02
2017-08-11T06:30:36.057Z,1.00
2017-08-11T06:33:03.576Z,1.23
2017-08-11T06:35:31.091Z,0.93
2017-08-11T06:37:58.584Z,0.80
2017-08-11T06:40:26.106Z,0.90
2017-08-11T06:42:53.608Z,0.90
2017-08-11T06:45:21.136Z,1.00
2017-08-11T06:47:49.404Z,1.40
2017-08-11T06:50:16.915Z,1.30
2017-08-11T06:52:44.430Z,1.15
2017-08-11T06:55:12.957Z,1.30
2017-08-11T06:57:40.549Z,1.55
2017-08-11T07:00:08.558Z,1.90
2017-08-11T07:02:36.117Z,2.12
2017-08-11T07:05:03.669Z,2.60
2017-08-11T07:07:31.363Z,2.65
2017-08-11T07:09:58.857Z,1.80
2017-08-11T07:12:26.379Z,1.50
2017-08-11T07:14:53.880Z,1.27
2017-08-11T07:17:22.168Z,1.60
2017-08-11T07:19:49.691Z,1.70
2017-08-11T07:22:17.218Z,1.80
2017-08-11T07:24:44.717Z,2.15
2017-08-11T07:27:13.140Z,2.10
2017-08-11T07:29:40.708Z,2.50
2017-08-11T07:32:08.315Z,2.00
2017-08-11T07:34:36.608Z,3.12
2017-08-11T07:37:04.114Z,2.62
2017-08-11T07:39:31.637Z,2.58
2017-08-11T07:41:59.150Z,2.65
2017-08-11T07:44:26.674Z,3.25
2017-08-11T07:46:54.209Z,2.50
2017-08-11T07:49:21.773Z,2.80
2017-08-11T07:51:49.284Z,2.62
2017-08-11T07:54:17.689Z,2.92
2017-08-11T07:56:46.812Z,2.37
2017-08-11T07:59:14.560Z,3.97
2017-08-11T08:01:42.078Z,3.25
2017-08-11T08:04:10.401Z,3.80
2017-08-11T08:06:38.015Z,3.10
2017-08-11T08:09:05.571Z,2.90
2017-08-11T08:11:33.856Z,2.40
2017-08-11T08:14:01.361Z,2.90
2017-08-11T08:16:28.989Z,3.37
2017-08-11T08:18:56.500Z,3.00
2017-08-11T08:21:24.142Z,3.35
2017-08-11T08:23:51.660Z,3.00
2017-08-11T08:26:19.203Z,2.92
2017-08-11T08:28:46.900Z,2.80
2017-08-11T08:31:14.406Z,2.87
2017-08-11T08:33:42.696Z,2.72
2017-08-11T08:36:10.188Z,2.72
2017-08-11T08:38:37.715Z,3.10
2017-08-11T08:41:05.992Z,2.22
2017-08-11T08:43:33.584Z,2.03
2017-08-11T08:46:01.119Z,1.52
2017-08-11T08:48:28.643Z,2.47
2017-08-11T08:50:57.056Z,2.30
2017-08-11T08:53:24.593Z,2.33
2017-08-11T08:55:52.206Z,2.03
2017-08-11T08:58:19.802Z,2.33
2017-08-11T09:00:48.136Z,2.95
2017-08-11T09:03:15.672Z,2.80
2017-08-11T09:05:43.193Z,2.60
2017-08-11T09:08:11.511Z,2.53
2017-08-11T09:10:39.044Z,2.70
2017-08-11T09:13:06.579Z,2.17
2017-08-11T09:15:34.869Z,2.25
2017-08-11T09:18:02.369Z,2.33
2017-08-11T09:20:30.025Z,2.15
2017-08-11T09:22:57.653Z,3.00
2017-08-11T09:25:36.849Z,3.03
2017-08-11T09:28:17.111Z,5.72
2017-08-11T09:30:57.289Z,5.32
2017-08-11T09:33:36.638Z,4.22
2017-08-11T09:36:16.825Z,3.83
2017-08-11T09:38:44.349Z,3.12
2017-08-11T09:41:11.844Z,2.70
2017-08-11T09:43:39.361Z,2.65
2017-08-11T09:46:06.856Z,2.45
2017-08-11T09:48:35.272Z,2.40
2017-08-11T09:51:02.807Z,2.60
2017-08-11T09:53:31.102Z,2.95
2017-08-11T09:55:58.820Z,1.98
2017-08-11T09:58:26.358Z,1.90
2017-08-11T10:00:53.881Z,2.00
2017-08-11T10:03:21.377Z,1.70
2017-08-11T10:05:48.897Z,2.83
2017-08-11T10:08:16.398Z,2.78
2017-08-11T10:10:43.920Z,2.35
2017-08-11T10:13:11.528Z,2.33
2017-08-11T10:15:39.941Z,2.20
2017-08-11T10:18:07.461Z,2.45
2017-08-11T10:20:34.991Z,2.70
2017-08-11T10:23:02.657Z,2.30
2017-08-11T10:25:30.152Z,2.42
2017-08-11T10:27:58.435Z,2.03
2017-08-11T10:30:25.989Z,2.10
2017-08-11T10:32:54.524Z,3.35
2017-08-11T10:35:22.070Z,10.23
2017-08-11T10:37:49.605Z,6.62
2017-08-11T10:40:17.112Z,2.75
2017-08-11T10:42:44.750Z,2.60
2017-08-11T10:45:12.253Z,2.03
2017-08-11T10:47:40.522Z,1.83
2017-08-11T10:50:08.045Z,2.28
2017-08-11T10:52:36.224Z,1.95
2017-08-11T10:55:03.938Z,1.60
2017-08-11T10:57:31.516Z,2.85
2017-08-11T10:59:59.691Z,1.65
2017-08-11T11:02:27.217Z,1.70
2017-08-11T11:04:54.741Z,1.37
2017-08-11T11:07:23.104Z,1.30
2017-08-11T11:09:50.626Z,1.30
2017-08-11T11:12:18.145Z,1.90
2017-08-11T11:14:45.916Z,1.30
2017-08-11T11:17:14.272Z,1.85
2017-08-11T11:19:42.561Z,2.00
2017-08-11T11:22:11.069Z,1.50
2017-08-11T11:24:38.619Z,1.33
2017-08-11T11:27:06.273Z,1.62
2017-08-11T11:29:33.847Z,1.92
2017-08-11T11:32:01.385Z,2.00
2017-08-11T11:34:28.890Z,1.70
2017-08-11T11:36:56.418Z,1.80
2017-08-11T11:39:24.700Z,1.20
2017-08-11T11:41:52.301Z,1.90
2017-08-11T11:44:19.843Z,2.20
2017-08-11T11:46:47.482Z,1.20
2017-08-11T11:49:15.048Z,1.60
2017-08-11T11:51:42.553Z,1.50
2017-08-11T11:54:10.851Z,1.10
2017-08-11T11:56:38.364Z,1.50
2017-08-11T11:59:05.952Z,1.42
2017-08-11T12:01:33.484Z,2.15
2017-08-11T12:04:01.957Z,0.93
2017-08-11T12:06:29.595Z,2.08
2017-08-11T12:08:57.177Z,1.52
2017-08-11T12:11:24.705Z,2.12
2017-08-11T12:13:52.280Z,2.42
2017-08-11T12:16:19.825Z,2.53
2017-08-11T12:18:47.328Z,2.50
2017-08-11T12:21:14.928Z,2.55
2017-08-11T12:23:42.486Z,2.70
2017-08-11T12:26:10.009Z,2.60
2017-08-11T12:28:37.513Z,2.60
2017-08-11T12:31:06.295Z,2.90
2017-08-11T12:33:34.007Z,3.83
2017-08-11T12:36:01.590Z,3.65
2017-08-11T12:38:29.108Z,3.33
2017-08-11T12:40:57.413Z,3.70
2017-08-11T12:43:24.913Z,3.97
2017-08-11T12:45:52.624Z,4.22
2017-08-11T12:48:20.146Z,3.95
2017-08-11T12:50:47.657Z,3.45
2017-08-11T12:53:15.484Z,4.15
2017-08-11T12:55:43.782Z,3.15
2017-08-11T12:58:11.309Z,3.20
2017-08-11T13:00:39.602Z,3.00
2017-08-11T13:03:07.148Z,2.78
2017-08-11T13:05:35.550Z,2.17
2017-08-11T13:08:03.308Z,2.80
2017-08-11T13:10:30.994Z,2.37
2017-08-11T13:12:58.502Z,2.90
2017-08-11T13:15:26.794Z,2.65
2017-08-11T13:17:54.297Z,2.90
2017-08-11T13:20:22.613Z,2.78
2017-08-11T13:22:51.135Z,3.00
2017-08-11T13:25:18.655Z,2.67
2017-08-11T13:27:47.309Z,3.12
2017-08-11T13:30:14.882Z,3.00
2017-08-11T13:32:43.180Z,3.10
2017-08-11T13:35:10.820Z,3.22
2017-08-11T13:37:39.129Z,3.15
2017-08-11T13:40:06.721Z,3.10
2017-08-11T13:42:34.224Z,3.12
2017-08-11T13:45:01.724Z,3.40
2017-08-11T13:47:29.277Z,2.67
2017-08-11T13:49:57.500Z,3.37
2017-08-11T13:52:25.028Z,3.75
2017-08-11T13:54:52.532Z,3.45
2017-08-11T13:57:20.209Z,3.50
2017-08-11T13:59:47.728Z,3.45
2017-08-11T14:02:15.288Z,4.60
2017-08-11T14:04:43.614Z,4.10
2017-08-11T14:07:11.152Z,4.40
2017-08-11T14:09:38.661Z,4.03
2017-08-11T14:12:06.965Z,4.50
2017-08-11T14:14:34.481Z,3.72
2017-08-11T14:17:02.788Z,3.62
2017-08-11T14:19:30.313Z,4.40
2017-08-11T14:21:57.817Z,4.62
2017-08-11T14:24:31.096Z,3.50
2017-08-11T14:26:58.596Z,2.83
2017-08-11T14:29:26.119Z,3.65
2017-08-11T14:31:53.873Z,4.12
2017-08-11T14:34:21.387Z,3.85
2017-08-11T14:36:48.892Z,3.15
2017-08-11T14:39:16.450Z,2.62
2017-08-11T14:41:43.968Z,2.35
2017-08-11T14:44:12.265Z,3.00
2017-08-11T14:46:39.772Z,2.90
2017-08-11T14:49:07.296Z,3.00
2017-08-11T14:51:34.878Z,4.00
2017-08-11T14:54:02.377Z,2.92
2017-08-11T14:56:30.667Z,3.78
2017-08-11T14:58:58.221Z,4.45
2017-08-11T15:01:26.525Z,3.75
2017-08-11T15:03:54.016Z,4.37
2017-08-11T15:06:21.701Z,5.20
2017-08-11T15:08:50.062Z,5.28
2017-08-11T15:11:17.645Z,5.35
2017-08-11T15:13:45.917Z,5.22
2017-08-11T15:16:14.214Z,4.25
2017-08-11T15:18:50.873Z,3.33
2017-08-11T15:24:16.409Z,3.50
2017-08-11T15:26:44.120Z,3.55
2017-08-11T15:29:12.402Z,3.58
2017-08-11T15:31:39.913Z,3.20
2017-08-11T15:34:07.484Z,2.10
2017-08-11T15:36:35.537Z,2.42
2017-08-11T15:39:03.123Z,2.15
2017-08-11T15:41:30.623Z,2.17
2017-08-11T15:44:02.474Z,2.50
2017-08-11T15:46:30.205Z,1.85
2017-08-11T15:48:57.727Z,2.10
2017-08-11T15:51:25.226Z,1.92
2017-08-11T15:53:52.740Z,1.65
2017-08-11T15:56:20.245Z,1.65
2017-08-11T15:58:47.777Z,1.35
2017-08-11T16:01:15.538Z,1.48
2017-08-11T16:03:43.041Z,1.35
2017-08-11T16:06:11.333Z,1.10
2017-08-11T16:08:38.864Z,1.50
2017-08-11T16:11:07.332Z,1.37
2017-08-11T16:13:34.837Z,1.45
2017-08-11T16:16:02.376Z,1.48
2017-08-11T16:18:29.874Z,1.40
2017-08-11T16:20:57.398Z,1.20
2017-08-11T16:23:24.898Z,1.65
2017-08-11T16:25:52.421Z,1.80
2017-08-11T16:28:19.928Z,1.67
2017-08-11T16:30:47.521Z,2.53
2017-08-11T16:33:15.249Z,2.60
2017-08-11T16:35:43.524Z,2.50
2017-08-11T16:38:11.045Z,2.60
2017-08-11T16:40:38.857Z,2.80
2017-08-11T16:43:06.385Z,2.40
2017-08-11T16:45:33.885Z,2.55
2017-08-11T16:48:01.545Z,2.50
2017-08-11T16:50:29.089Z,2.62
2017-08-11T16:52:57.375Z,3.12
2017-08-11T16:55:24.873Z,2.80
2017-08-11T16:57:52.372Z,3.20
2017-08-11T17:00:20.661Z,3.37
2017-08-11T17:02:48.932Z,3.33
2017-08-11T17:05:17.253Z,2.90
2017-08-11T17:07:44.757Z,3.55
2017-08-11T17:10:13.151Z,3.30
2017-08-11T17:12:40.673Z,3.60
2017-08-11T17:15:08.297Z,3.37
2017-08-11T17:17:35.840Z,3.50
2017-08-11T17:20:03.367Z,3.40
2017-08-11T17:22:30.906Z,4.05
2017-08-11T17:24:58.718Z,3.62
2017-08-11T17:27:26.228Z,4.00
2017-08-11T17:29:54.001Z,3.80
2017-08-11T17:32:22.291Z,3.50
2017-08-11T17:34:49.801Z,3.90
2017-08-11T17:37:17.325Z,3.70
2017-08-11T17:39:44.825Z,4.05
2017-08-11T17:42:13.063Z,3.80
2017-08-11T17:44:40.564Z,4.35
2017-08-11T17:47:08.553Z,3.55
2017-08-11T17:49:36.820Z,3.53
2017-08-11T17:52:05.113Z,3.87
2017-08-11T17:54:32.629Z,3.45
2017-08-11T17:57:00.132Z,3.90
2017-08-11T17:59:27.657Z,3.87
2017-08-11T18:01:56.093Z,3.60
2017-08-11T18:04:23.628Z,3.70
2017-08-11T18:06:51.137Z,4.22
2017-08-11T18:09:18.668Z,3.50
2017-08-11T18:11:46.174Z,4.55
2017-08-11T18:14:14.510Z,3.90
2017-08-11T18:16:42.017Z,3.25
2017-08-11T18:19:09.540Z,3.55
2017-08-11T18:21:37.037Z,3.80
2017-08-11T18:24:04.560Z,3.40
2017-08-11T18:26:32.832Z,2.92
2017-08-11T18:29:00.332Z,3.25
2017-08-11T18:31:27.861Z,3.30
2017-08-11T18:33:56.134Z,2.92
2017-08-11T18:36:23.681Z,4.18
2017-08-11T18:38:51.950Z,3.30
2017-08-11T18:41:19.486Z,4.00
2017-08-11T18:43:47.188Z,4.12
2017-08-11T18:46:14.713Z,3.33
2017-08-11T18:48:42.217Z,2.12
2017-08-11T18:51:09.737Z,2.35
2017-08-11T18:53:37.260Z,2.00
2017-08-11T18:56:04.785Z,2.08
2017-08-11T18:58:32.551Z,2.00
2017-08-11T19:01:00.452Z,2.70
2017-08-11T19:03:27.971Z,2.30
2017-08-11T19:05:55.482Z,2.05
2017-08-11T19:08:23.004Z,2.20
2017-08-11T19:10:50.499Z,2.35
2017-08-11T19:13:18.220Z,2.40
2017-08-11T19:15:46.480Z,2.40
2017-08-11T19:18:14.052Z,2.50
2017-08-11T19:20:41.749Z,2.05
2017-08-11T19:23:10.392Z,2.25
2017-08-11T19:25:37.901Z,2.08
2017-08-11T19:28:05.517Z,2.22
2017-08-11T19:30:33.865Z,2.47
2017-08-11T19:33:01.993Z,2.55
2017-08-11T19:35:29.679Z,2.85
2017-08-11T19:37:58.582Z,2.85
2017-08-11T19:40:26.120Z,2.80
2017-08-11T19:42:54.389Z,2.75
2017-08-11T19:45:22.682Z,2.70
2017-08-11T19:47:50.188Z,2.85
2017-08-11T19:50:17.717Z,2.90
2017-08-11T19:52:45.225Z,2.70
2017-08-11T19:55:14.306Z,2.90
2017-08-11T19:57:41.837Z,2.78
2017-08-11T20:00:09.381Z,2.60
2017-08-11T20:02:37.596Z,2.15
2017-08-11T20:05:05.232Z,1.90
2017-08-11T20:07:32.762Z,1.90
2017-08-11T20:10:00.298Z,1.90
2017-08-11T20:12:29.493Z,2.20
2017-08-11T20:14:57.767Z,2.60
2017-08-11T20:17:26.060Z,2.20
2017-08-11T20:19:53.565Z,2.10
2017-08-11T20:22:21.087Z,2.20
2017-08-11T20:24:48.589Z,2.35
2017-08-11T20:27:16.116Z,2.60
2017-08-11T20:29:43.617Z,2.20
2017-08-11T20:32:11.893Z,2.53
2017-08-11T20:34:40.483Z,2.75
2017-08-11T20:37:08.933Z,2.80
2017-08-11T20:39:37.861Z,2.12
2017-08-11T20:42:06.370Z,1.95
2017-08-11T20:44:33.889Z,2.03
2017-08-11T20:47:02.148Z,2.40
2017-08-11T20:49:30.436Z,1.95
2017-08-11T20:51:58.696Z,2.37
2017-08-11T20:54:26.243Z,2.00
2017-08-11T20:56:54.533Z,2.10
2017-08-11T20:59:22.401Z,2.20
2017-08-11T21:01:52.578Z,2.20
2017-08-11T21:04:20.093Z,2.08
2017-08-11T21:06:47.789Z,1.95
2017-08-11T21:09:15.922Z,2.00
2017-08-11T21:11:43.442Z,2.42
2017-08-11T21:14:12.828Z,2.05
2017-08-11T21:16:40.656Z,2.22
2017-08-11T21:19:08.372Z,2.15
2017-08-11T21:21:35.902Z,1.80
2017-08-11T21:24:03.425Z,1.95
2017-08-11T21:26:30.955Z,2.17
2017-08-11T21:28:59.227Z,1.50
2017-08-11T21:31:27.624Z,1.52
2017-08-11T21:33:55.145Z,1.80
2017-08-11T21:36:24.015Z,1.70
2017-08-11T21:38:51.537Z,2.08
2017-08-11T21:41:19.041Z,1.70
2017-08-11T21:43:46.661Z,1.23
2017-08-11T21:46:14.160Z,1.45
2017-08-11T21:48:41.682Z,1.80
2017-08-11T21:51:09.192Z,1.40
2017-08-11T21:53:37.493Z,1.50
2017-08-11T21:56:06.716Z,1.65
2017-08-11T21:58:34.486Z,1.67
2017-08-11T22:01:01.986Z,1.50
2017-08-11T22:03:30.268Z,1.85
2017-08-11T22:05:58.557Z,1.83
2017-08-11T22:08:26.288Z,1.90
2017-08-11T22:10:53.800Z,1.85
2017-08-11T22:13:21.301Z,1.65
2017-08-11T22:15:48.882Z,1.70
2017-08-11T22:18:16.381Z,1.00
2017-08-11T22:20:43.895Z,0.98
2017-08-11T22:23:12.199Z,0.80
2017-08-11T22:25:39.724Z,1.00
2017-08-11T22:28:07.225Z,1.00
2017-08-11T22:30:34.872Z,1.00
